EGDR

RNAS Culdrose Airport

Helston, United Kingdom
METAR EGDR 161350Z AUTO 31017KT 9999 // OVC070/// 08/03 Q1023
Observed Flight Rules
Dec-16 @ 13:50 UTC (58 minutes ago) Visual Flight Rules
Wind Visibility Clouds
310° at 17 knots 10,000+ meters
  • Overcast at 7,000' AGL
Temperatures Readings
Current 8°C / 46°F
Dewpoint 3°C / 37°F
Humidity 71%
Altimeter 30.21" Hg
Pressure 1023 hPa
Elevation 82
METAR EGDR 161350Z AUTO 31017KT 9999 // OVC070/// 08/03 Q1023
Observed Flight Rules
Dec-16 @ 13:50 UTC
(58 minutes ago)
VFR
Wind Visibility
310° at 17 knots 10,000+ meters
Clouds
  • Overcast at 7,000' AGL
Temperature Dewpoint
8°C / 46°F 3°C / 37°F
Humidity Altimeter Pressure
71% 30.21" Hg 1023 hPa